createdAt,value
2023-02-12T00:01:08.334Z,99716.63
2023-02-12T00:03:34.911Z,99721.13
2023-02-12T00:06:01.826Z,99720.31
2023-02-12T00:08:28.272Z,99728.31
2023-02-12T00:10:54.563Z,99726.66
2023-02-12T00:13:20.995Z,99724.00
2023-02-12T00:15:47.970Z,99725.00
2023-02-12T00:18:14.955Z,99724.19
2023-02-12T00:20:41.582Z,99731.34
2023-02-12T00:23:08.584Z,99735.03
2023-02-12T00:25:34.983Z,99725.38
2023-02-12T00:28:02.021Z,99727.25
2023-02-12T00:30:28.969Z,99737.06
2023-02-12T00:32:56.017Z,99730.09
2023-02-12T00:35:22.271Z,99731.94
2023-02-12T00:37:49.524Z,99728.44
2023-02-12T00:40:16.090Z,99733.78
2023-02-12T00:42:42.631Z,99732.13
2023-02-12T00:45:08.994Z,99734.16
2023-02-12T00:47:35.270Z,99728.84
2023-02-12T00:50:01.637Z,99727.19
2023-02-12T00:52:27.932Z,99733.31
2023-02-12T00:54:55.072Z,99736.19
2023-02-12T00:57:21.413Z,99734.56
2023-02-12T00:59:48.905Z,99738.22
2023-02-12T01:02:16.126Z,99733.91
2023-02-12T01:04:42.481Z,99727.75
2023-02-12T01:07:11.731Z,99727.94
2023-02-12T01:09:38.643Z,99734.91
2023-02-12T01:12:05.029Z,99727.13
2023-02-12T01:14:31.485Z,99731.63
2023-02-12T01:16:58.352Z,99726.47
2023-02-12T01:19:24.665Z,99728.34
2023-02-12T01:21:50.967Z,99731.81
2023-02-12T01:24:18.058Z,99732.84
2023-02-12T01:26:44.595Z,99732.00
2023-02-12T01:29:11.603Z,99736.53
2023-02-12T01:31:38.101Z,99734.03
2023-02-12T01:34:05.085Z,99737.53
2023-02-12T01:36:31.654Z,99735.69
2023-02-12T01:38:57.989Z,99731.38
2023-02-12T01:41:24.252Z,99732.19
2023-02-12T01:43:50.934Z,99734.03
2023-02-12T01:46:17.313Z,99730.56
2023-02-12T01:48:44.341Z,99727.06
2023-02-12T01:51:13.307Z,99722.56
2023-02-12T01:53:39.974Z,99724.41
2023-02-12T01:56:06.957Z,99731.56
2023-02-12T01:58:34.288Z,99733.22
2023-02-12T02:01:00.750Z,99733.22
2023-02-12T02:03:27.122Z,99727.25
2023-02-12T02:05:54.552Z,99727.25
2023-02-12T02:08:21.331Z,99732.59
2023-02-12T02:10:47.751Z,99738.91
2023-02-12T02:13:14.026Z,99736.25
2023-02-12T02:15:43.891Z,99732.78
2023-02-12T02:18:10.837Z,99732.78
2023-02-12T02:20:37.116Z,99737.28
2023-02-12T02:23:03.966Z,99733.97
2023-02-12T02:25:30.309Z,99732.97
2023-02-12T02:27:56.767Z,99740.13
2023-02-12T02:30:24.010Z,99733.97
2023-02-12T02:32:50.366Z,99724.34
2023-02-12T02:35:16.704Z,99725.34
2023-02-12T02:37:43.140Z,99726.19
2023-02-12T02:40:09.469Z,99726.19
2023-02-12T02:42:36.198Z,99727.22
2023-02-12T02:45:03.071Z,99727.22
2023-02-12T02:47:29.348Z,99732.53
2023-02-12T02:49:55.628Z,99727.38
2023-02-12T02:52:21.920Z,99720.22
2023-02-12T02:54:48.321Z,99724.72
2023-02-12T02:57:14.935Z,99722.25
2023-02-12T02:59:41.873Z,99713.44
2023-02-12T03:02:08.157Z,99723.25
2023-02-12T03:04:35.098Z,99717.94
2023-02-12T03:07:01.952Z,99721.59
2023-02-12T03:09:28.214Z,99716.28
2023-02-12T03:11:54.890Z,99729.59
2023-02-12T03:14:21.285Z,99718.94
2023-02-12T03:16:47.606Z,99722.63
2023-02-12T03:19:13.922Z,99715.66
2023-02-12T03:21:40.273Z,99713.00
2023-02-12T03:24:06.834Z,99713.00
2023-02-12T03:26:33.135Z,99715.03
2023-02-12T03:29:00.625Z,99725.47
2023-02-12T03:31:26.934Z,99719.53
2023-02-12T03:33:53.683Z,99719.53
2023-02-12T03:36:20.006Z,99727.50
2023-02-12T03:38:46.409Z,99723.22
2023-02-12T03:41:12.773Z,99717.06
2023-02-12T03:43:39.027Z,99726.06
2023-02-12T03:46:05.440Z,99723.56
2023-02-12T03:48:32.487Z,99719.91
2023-02-12T03:50:58.797Z,99724.41
2023-02-12T03:53:25.104Z,99727.06
2023-02-12T03:55:51.482Z,99723.56
2023-02-12T03:58:17.798Z,99728.09
2023-02-12T04:00:44.504Z,99730.75
2023-02-12T04:03:10.840Z,99732.59
2023-02-12T04:05:38.406Z,99736.09
2023-02-12T04:08:04.679Z,99731.75
2023-02-12T04:10:31.529Z,99731.75
2023-02-12T04:12:57.847Z,99738.94
2023-02-12T04:15:24.796Z,99730.94
2023-02-12T04:17:52.272Z,99745.25
2023-02-12T04:20:18.577Z,99744.44
2023-02-12T04:22:44.826Z,99748.94
2023-02-12T04:25:11.053Z,99747.28
2023-02-12T04:27:37.884Z,99754.28
2023-02-12T04:30:04.250Z,99756.94
2023-02-12T04:32:30.543Z,99759.59
2023-02-12T04:34:56.775Z,99768.22
2023-02-12T04:37:22.961Z,99763.72
2023-02-12T04:39:49.197Z,99770.91
2023-02-12T04:42:15.376Z,99765.56
2023-02-12T04:44:41.596Z,99768.03
2023-02-12T04:47:07.914Z,99763.34
2023-02-12T04:49:34.212Z,99771.16
2023-02-12T04:52:00.465Z,99764.59
2023-02-12T04:54:27.500Z,99771.59
2023-02-12T04:56:53.865Z,99771.22
2023-02-12T04:59:20.095Z,99770.00
2023-02-12T05:01:46.416Z,99771.66
2023-02-12T05:04:12.995Z,99771.28
2023-02-12T05:06:39.176Z,99769.44
2023-02-12T05:09:05.421Z,99780.72
2023-02-12T05:11:31.701Z,99777.88
2023-02-12T05:13:58.021Z,99773.19
2023-02-12T05:16:24.891Z,99776.50
2023-02-12T05:18:51.123Z,99774.63
2023-02-12T05:21:18.526Z,99768.13
2023-02-12T05:23:44.690Z,99779.59
2023-02-12T05:26:10.860Z,99777.53
2023-02-12T05:28:38.254Z,99776.34
2023-02-12T05:31:04.570Z,99774.31
2023-02-12T05:33:30.967Z,99775.97
2023-02-12T05:35:57.601Z,99778.44
2023-02-12T05:38:23.849Z,99774.56
2023-02-12T05:40:50.104Z,99779.72
2023-02-12T05:43:16.458Z,99783.66
2023-02-12T05:45:42.690Z,99778.97
2023-02-12T05:48:09.023Z,99782.22
2023-02-12T05:50:35.310Z,99781.88
2023-02-12T05:53:01.650Z,99786.81
2023-02-12T05:55:27.940Z,99783.13
2023-02-12T05:57:54.282Z,99793.44
2023-02-12T06:00:20.588Z,99791.41
2023-02-12T06:02:47.243Z,99794.88
2023-02-12T06:05:13.637Z,99796.34
2023-02-12T06:07:39.893Z,99801.69
2023-02-12T06:10:06.795Z,99790.63
2023-02-12T06:12:33.141Z,99806.22
2023-02-12T06:15:03.828Z,99810.38
2023-02-12T06:17:30.714Z,99807.50
2023-02-12T06:19:56.950Z,99810.81
2023-02-12T06:22:23.922Z,99811.25
2023-02-12T06:24:50.262Z,99811.88
2023-02-12T06:27:16.790Z,99818.66
2023-02-12T06:29:44.013Z,99818.47
2023-02-12T06:32:10.483Z,99820.97
2023-02-12T06:34:38.123Z,99824.22
2023-02-12T06:37:04.374Z,99826.72
2023-02-12T06:39:31.161Z,99827.34
2023-02-12T06:41:57.987Z,99832.50
2023-02-12T06:44:24.318Z,99833.13
2023-02-12T06:46:50.798Z,99827.59
2023-02-12T06:49:18.510Z,99836.22
2023-02-12T06:51:44.909Z,99839.72
2023-02-12T06:54:11.158Z,99838.69
2023-02-12T06:56:37.442Z,99840.34
2023-02-12T07:01:54.705Z,99850.00
2023-02-12T07:04:21.149Z,99854.34
2023-02-12T07:06:48.533Z,99845.50
2023-02-12T07:09:14.793Z,99852.47
2023-02-12T07:11:41.485Z,99858.63
2023-02-12T07:14:08.754Z,99860.47
2023-02-12T07:16:35.128Z,99865.00
2023-02-12T07:19:01.477Z,99872.16
2023-02-12T07:21:27.828Z,99874.00
2023-02-12T07:23:54.178Z,99873.19
2023-02-12T07:26:20.452Z,99873.38
2023-02-12T07:28:46.977Z,99869.06
2023-02-12T07:31:13.903Z,99870.09
2023-02-12T07:33:40.229Z,99879.94
2023-02-12T07:36:06.486Z,99881.75
2023-02-12T07:38:32.873Z,99880.78
2023-02-12T07:40:59.129Z,99884.22
2023-02-12T07:43:25.562Z,99887.75
2023-02-12T07:45:52.925Z,99886.72
2023-02-12T07:48:20.594Z,99893.06
2023-02-12T07:50:46.926Z,99895.53
2023-02-12T07:53:13.385Z,99896.38
2023-02-12T07:55:39.757Z,99894.34
2023-02-12T07:58:06.035Z,99888.19
2023-02-12T08:00:32.467Z,99891.69
2023-02-12T08:02:58.910Z,99893.31
2023-02-12T08:05:25.457Z,99891.47
2023-02-12T08:07:51.840Z,99888.63
2023-02-12T08:10:21.195Z,99888.63
2023-02-12T08:12:47.859Z,99887.78
2023-02-12T08:15:14.260Z,99895.59
2023-02-12T08:17:40.899Z,99890.25
2023-02-12T08:20:07.850Z,99892.13
2023-02-12T08:22:34.223Z,99891.09
2023-02-12T08:25:01.190Z,99892.91
2023-02-12T08:27:27.445Z,99896.44
2023-02-12T08:29:53.889Z,99892.91
2023-02-12T08:32:20.126Z,99893.94
2023-02-12T08:34:46.507Z,99903.00
2023-02-12T08:37:13.920Z,99895.16
2023-02-12T08:39:40.305Z,99895.34
2023-02-12T08:42:06.639Z,99896.19
2023-02-12T08:44:33.464Z,99907.03
2023-02-12T08:47:00.285Z,99909.72
2023-02-12T08:49:26.530Z,99912.38
2023-02-12T08:51:52.841Z,99900.03
2023-02-12T08:54:19.168Z,99905.38
2023-02-12T08:56:45.552Z,99906.41
2023-02-12T08:59:12.897Z,99912.78
2023-02-12T09:01:39.430Z,99910.28
2023-02-12T09:04:06.368Z,99912.94
2023-02-12T09:06:32.689Z,99909.47
2023-02-12T09:11:50.796Z,99920.34
2023-02-12T09:14:17.304Z,99922.16
2023-02-12T09:16:44.716Z,99927.50
2023-02-12T09:19:16.868Z,99921.34
2023-02-12T09:21:43.293Z,99922.16
2023-02-12T09:24:09.750Z,99921.53
2023-02-12T09:26:36.842Z,99925.88
2023-02-12T09:29:03.181Z,99929.53
2023-02-12T09:31:29.670Z,99931.19
2023-02-12T09:33:56.065Z,99936.53
2023-02-12T09:36:22.519Z,99935.50
2023-02-12T09:38:48.922Z,99932.00
2023-02-12T09:41:15.909Z,99938.19
2023-02-12T09:43:42.898Z,99936.16
2023-02-12T09:46:09.308Z,99949.47
2023-02-12T09:48:36.419Z,99943.94
2023-02-12T09:51:02.888Z,99942.91
2023-02-12T09:53:29.164Z,99942.13
2023-02-12T09:55:55.748Z,99947.25
2023-02-12T09:58:22.320Z,99946.22
2023-02-12T10:00:48.982Z,99944.41
2023-02-12T10:03:15.415Z,99945.41
2023-02-12T10:05:41.877Z,99949.09
2023-02-12T10:08:08.684Z,99949.72
2023-02-12T10:10:35.008Z,99946.44
2023-02-12T10:13:01.540Z,99946.22
2023-02-12T10:15:31.830Z,99956.06
2023-02-12T10:17:58.398Z,99956.06
2023-02-12T10:20:24.720Z,99962.25
2023-02-12T10:22:56.795Z,99954.22
2023-02-12T10:30:58.798Z,99955.06
2023-02-12T10:33:25.235Z,99948.91
2023-02-12T10:35:58.107Z,99950.72
2023-02-12T10:38:24.781Z,99945.41
2023-02-12T10:40:51.151Z,99948.06
2023-02-12T10:43:17.461Z,99951.75
2023-02-12T10:45:43.888Z,99957.09
2023-02-12T10:48:10.264Z,99947.47
2023-02-12T10:50:36.585Z,99952.78
2023-02-12T10:53:02.876Z,99954.63
2023-02-12T10:55:29.262Z,99950.94
2023-02-12T10:57:55.673Z,99956.47
2023-02-12T11:00:22.746Z,99953.78
2023-02-12T11:02:49.090Z,99949.47
2023-02-12T11:05:15.496Z,99957.50
2023-02-12T11:07:41.959Z,99952.16
2023-02-12T11:10:08.287Z,99958.47
2023-02-12T11:12:34.551Z,99963.03
2023-02-12T11:15:00.953Z,99954.81
2023-02-12T11:17:27.210Z,99953.16
2023-02-12T11:19:53.910Z,99955.81
2023-02-12T11:22:20.957Z,99958.47
2023-02-12T11:24:47.333Z,99948.66
2023-02-12T11:27:13.705Z,99948.66
2023-02-12T11:29:40.598Z,99948.44
2023-02-12T11:32:06.949Z,99950.13
2023-02-12T11:34:33.383Z,99943.75
2023-02-12T11:36:59.675Z,99948.06
2023-02-12T11:39:26.084Z,99947.25
2023-02-12T11:41:52.548Z,99944.41
2023-02-12T11:44:18.938Z,99941.72
2023-02-12T11:46:45.483Z,99939.06
2023-02-12T11:51:55.866Z,99939.69
2023-02-12T11:54:22.814Z,99943.16
2023-02-12T11:56:49.196Z,99952.66
2023-02-12T11:59:15.454Z,99945.69
2023-02-12T12:01:42.251Z,99947.50
2023-02-12T12:04:08.626Z,99951.00
2023-02-12T12:06:46.998Z,99954.69
2023-02-12T12:09:13.836Z,99947.50
2023-02-12T12:11:40.172Z,99937.69
2023-02-12T12:14:06.517Z,99932.34
2023-02-12T12:16:33.038Z,99932.34
2023-02-12T12:18:59.728Z,99932.34
2023-02-12T12:21:26.061Z,99936.63
2023-02-12T12:23:52.359Z,99937.69
2023-02-12T12:26:18.984Z,99943.00
2023-02-12T12:31:29.376Z,99937.84
2023-02-12T12:36:44.015Z,99922.84
2023-02-12T12:39:10.572Z,99924.50
2023-02-12T12:41:36.942Z,99928.19
2023-02-12T12:44:03.552Z,99923.69
2023-02-12T12:46:30.667Z,99917.53
2023-02-12T12:48:57.293Z,99922.84
2023-02-12T12:51:23.626Z,99916.69
2023-02-12T12:53:50.914Z,99916.88
2023-02-12T12:56:17.208Z,99917.72
2023-02-12T12:58:46.823Z,99921.38
2023-02-12T13:01:13.182Z,99922.41
2023-02-12T13:03:39.616Z,99922.22
2023-02-12T13:06:06.107Z,99917.72
2023-02-12T13:08:32.408Z,99912.38
2023-02-12T13:10:58.739Z,99915.88
2023-02-12T13:13:25.031Z,99913.03
2023-02-12T13:15:51.307Z,99911.16
2023-02-12T13:18:17.590Z,99907.50
2023-02-12T13:20:43.968Z,99911.00
2023-02-12T13:23:10.928Z,99899.28
2023-02-12T13:25:38.537Z,99912.63
2023-02-12T13:28:05.309Z,99903.59
2023-02-12T13:30:32.398Z,99907.94
2023-02-12T13:32:59.321Z,99908.75
2023-02-12T13:35:25.549Z,99913.91
2023-02-12T13:37:52.819Z,99913.06
2023-02-12T13:40:19.403Z,99906.72
2023-02-12T13:42:45.686Z,99909.38
2023-02-12T13:45:11.997Z,99908.56
2023-02-12T13:47:38.286Z,99902.19
2023-02-12T13:50:04.849Z,99896.03
2023-02-12T13:52:31.153Z,99899.53
2023-02-12T13:55:00.649Z,99891.53
2023-02-12T13:57:30.022Z,99887.22
2023-02-12T13:59:56.394Z,99888.88
2023-02-12T14:02:22.688Z,99891.53
2023-02-12T14:04:49.098Z,99890.69
2023-02-12T14:07:15.585Z,99891.53
2023-02-12T14:09:41.942Z,99884.56
2023-02-12T14:12:08.461Z,99886.38
2023-02-12T14:14:34.857Z,99889.91
2023-02-12T14:17:01.226Z,99888.22
2023-02-12T14:22:27.051Z,99887.41
2023-02-12T14:24:53.372Z,99885.56
2023-02-12T14:27:19.690Z,99887.59
2023-02-12T14:29:46.083Z,99889.25
2023-02-12T14:32:12.898Z,99891.91
2023-02-12T14:34:39.260Z,99894.59
2023-02-12T14:37:07.802Z,99894.59
2023-02-12T14:39:34.175Z,99888.63
2023-02-12T14:42:00.541Z,99886.97
2023-02-12T14:44:26.928Z,99892.31
2023-02-12T14:46:56.106Z,99881.66
2023-02-12T14:49:22.681Z,99884.13
2023-02-12T14:51:49.325Z,99882.44
2023-02-12T14:54:15.657Z,99883.47
2023-02-12T14:56:42.301Z,99885.13
2023-02-12T14:59:09.344Z,99888.81
2023-02-12T15:01:35.973Z,99892.31
2023-02-12T15:04:04.451Z,99894.97
2023-02-12T15:06:30.826Z,99892.31
2023-02-12T15:08:57.387Z,99891.47
2023-02-12T15:11:23.720Z,99897.66
2023-02-12T15:13:50.198Z,99892.31
2023-02-12T15:16:16.904Z,99903.00
2023-02-12T15:18:43.282Z,99895.97
2023-02-12T15:21:09.651Z,99892.31
2023-02-12T15:23:36.188Z,99903.00
2023-02-12T15:26:02.785Z,99893.31
2023-02-12T15:28:29.191Z,99894.97
2023-02-12T15:30:55.590Z,99890.66
2023-02-12T15:36:17.907Z,99895.34
2023-02-12T15:38:44.219Z,99891.69
2023-02-12T15:41:23.588Z,99894.53
2023-02-12T15:46:31.295Z,99897.38
2023-02-12T15:48:58.522Z,99890.22
2023-02-12T15:51:25.112Z,99897.38
2023-02-12T15:53:51.476Z,99893.06
2023-02-12T15:56:18.502Z,99885.25
2023-02-12T15:58:45.893Z,99883.59
2023-02-12T16:01:12.292Z,99889.78
2023-02-12T16:03:41.117Z,99884.63
2023-02-12T16:06:08.395Z,99887.28
2023-02-12T16:08:34.864Z,99883.00
2023-02-12T16:11:01.525Z,99880.53
2023-02-12T16:13:28.399Z,99879.50
2023-02-12T16:15:55.105Z,99884.00
2023-02-12T16:18:21.762Z,99891.78
2023-02-12T16:20:48.400Z,99887.28
2023-02-12T16:23:14.713Z,99893.06
2023-02-12T16:25:41.057Z,99895.34
2023-02-12T16:28:08.545Z,99895.97
2023-02-12T16:30:35.658Z,99892.13
2023-02-12T16:33:02.025Z,99898.91
2023-02-12T16:35:33.983Z,99905.50
2023-02-12T16:38:00.307Z,99906.16
2023-02-12T16:40:26.842Z,99906.78
2023-02-12T16:42:53.128Z,99906.59
2023-02-12T16:45:19.568Z,99905.34
2023-02-12T16:47:45.921Z,99911.31
2023-02-12T16:50:12.715Z,99911.13
2023-02-12T16:52:39.123Z,99912.59
2023-02-12T16:55:08.221Z,99915.91
2023-02-12T16:57:34.760Z,99921.88
2023-02-12T17:00:01.836Z,99922.69
2023-02-12T17:02:28.107Z,99913.47
2023-02-12T17:04:55.773Z,99917.78
2023-02-12T17:07:22.920Z,99917.59
2023-02-12T17:09:49.336Z,99921.91
2023-02-12T17:12:15.820Z,99925.44
2023-02-12T17:14:42.124Z,99927.91
2023-02-12T17:17:08.636Z,99923.38
2023-02-12T17:19:35.909Z,99920.53
2023-02-12T17:22:02.268Z,99924.19
2023-02-12T17:24:28.685Z,99923.19
2023-02-12T17:26:55.832Z,99931.00
2023-02-12T17:29:25.931Z,99932.66
2023-02-12T17:31:52.436Z,99930.81
2023-02-12T17:34:19.946Z,99931.63
2023-02-12T17:36:46.402Z,99940.25
2023-02-12T17:41:56.825Z,99939.25
2023-02-12T17:44:23.887Z,99938.41
2023-02-12T17:46:50.391Z,99934.91
2023-02-12T17:49:19.913Z,99935.94
2023-02-12T17:51:46.341Z,99936.59
2023-02-12T17:54:12.647Z,99939.44
2023-02-12T17:56:39.159Z,99942.13
2023-02-12T17:59:05.750Z,99938.63
2023-02-12T18:01:32.151Z,99939.44
2023-02-12T18:03:58.941Z,99935.94
2023-02-12T18:06:25.297Z,99936.97
2023-02-12T18:08:51.600Z,99942.31
2023-02-12T18:11:33.481Z,99941.47
2023-02-12T18:14:00.078Z,99940.66
2023-02-12T18:16:26.563Z,99947.81
2023-02-12T18:18:53.256Z,99934.69
2023-02-12T18:21:19.622Z,99942.69
2023-02-12T18:23:46.584Z,99952.34
2023-02-12T18:26:13.311Z,99942.69
2023-02-12T18:28:40.177Z,99952.34
2023-02-12T18:31:06.793Z,99944.34
2023-02-12T18:33:33.783Z,99946.00
2023-02-12T18:36:00.171Z,99951.31
2023-02-12T18:38:27.591Z,99945.00
2023-02-12T18:40:54.130Z,99946.00
2023-02-12T18:43:20.901Z,99942.47
2023-02-12T18:45:47.374Z,99947.66
2023-02-12T18:48:18.479Z,99948.66
2023-02-12T18:50:44.760Z,99943.31
2023-02-12T18:53:11.061Z,99949.50
2023-02-12T18:55:37.418Z,99948.66
2023-02-12T18:58:03.889Z,99946.00
2023-02-12T19:00:31.295Z,99945.16
2023-02-12T19:02:57.539Z,99937.34
2023-02-12T19:05:23.804Z,99933.03
2023-02-12T19:07:50.811Z,99931.38
2023-02-12T19:10:17.207Z,99934.03
2023-02-12T19:12:43.503Z,99936.09
2023-02-12T19:15:09.819Z,99932.81
2023-02-12T19:17:36.345Z,99927.47
2023-02-12T19:20:02.702Z,99928.47
2023-02-12T19:22:31.274Z,99932.81
2023-02-12T19:24:57.565Z,99936.47
2023-02-12T19:27:24.552Z,99937.31
2023-02-12T19:29:50.938Z,99944.28
2023-02-12T19:32:17.481Z,99944.13
2023-02-12T19:34:44.275Z,99952.13
2023-02-12T19:37:11.706Z,99948.41
2023-02-12T19:39:38.100Z,99947.38
2023-02-12T19:42:04.411Z,99947.22
2023-02-12T19:44:31.348Z,99951.72
2023-02-12T19:46:57.960Z,99953.34
2023-02-12T19:49:24.438Z,99948.84
2023-02-12T19:51:50.807Z,99951.53
2023-02-12T19:54:17.352Z,99951.31
2023-02-12T19:56:44.430Z,99952.34
2023-02-12T19:59:10.838Z,99954.19
2023-02-12T20:01:37.228Z,99956.03
2023-02-12T20:04:03.626Z,99951.72
2023-02-12T20:06:29.987Z,99950.06
2023-02-12T20:08:56.531Z,99943.09
2023-02-12T20:11:22.880Z,99946.59
2023-02-12T20:13:49.237Z,99946.78
2023-02-12T20:16:15.780Z,99950.44
2023-02-12T20:18:42.139Z,99954.16
2023-02-12T20:21:08.591Z,99947.16
2023-02-12T20:23:37.000Z,99944.66
2023-02-12T20:26:03.686Z,99946.69
2023-02-12T20:28:30.164Z,99945.91
2023-02-12T20:30:56.987Z,99949.56
2023-02-12T20:33:23.469Z,99947.09
2023-02-12T20:35:50.030Z,99947.09
2023-02-12T20:38:16.408Z,99945.47
2023-02-12T20:40:42.892Z,99958.59
2023-02-12T20:43:17.879Z,99960.63
2023-02-12T20:45:44.284Z,99962.91
2023-02-12T20:48:11.388Z,99958.59
2023-02-12T20:50:43.023Z,99960.25
2023-02-12T20:53:09.581Z,99965.59
2023-02-12T20:55:39.095Z,99960.25
2023-02-12T20:58:06.009Z,99958.59
2023-02-12T21:00:33.705Z,99958.59
2023-02-12T21:03:01.060Z,99964.75
2023-02-12T21:05:27.513Z,99960.44
2023-02-12T21:07:53.829Z,99962.28
2023-02-12T21:10:20.115Z,99960.63
2023-02-12T21:12:47.372Z,99960.63
2023-02-12T21:15:13.775Z,99970.28
2023-02-12T21:17:42.086Z,99966.97
2023-02-12T21:20:08.503Z,99964.31
2023-02-12T21:22:34.871Z,99969.66
2023-02-12T21:25:01.258Z,99962.66
2023-02-12T21:27:28.420Z,99968.00
2023-02-12T21:29:54.689Z,99959.38
2023-02-12T21:32:21.059Z,99965.53
2023-02-12T21:34:48.876Z,99962.03
2023-02-12T21:37:15.814Z,99964.69
2023-02-12T21:39:45.314Z,99961.22
2023-02-12T21:42:11.612Z,99957.72
2023-02-12T21:44:37.893Z,99965.72
2023-02-12T21:47:04.234Z,99958.72
2023-02-12T21:49:30.811Z,99956.25
2023-02-12T21:51:57.095Z,99962.44
2023-02-12T21:54:23.573Z,99957.09
2023-02-12T21:56:49.978Z,99959.75
2023-02-12T21:59:16.383Z,99958.13
2023-02-12T22:01:42.702Z,99942.09
2023-02-12T22:04:09.107Z,99954.81
2023-02-12T22:06:35.373Z,99943.31
2023-02-12T22:09:01.693Z,99945.97
2023-02-12T22:11:27.979Z,99947.81
2023-02-12T22:13:55.759Z,99941.66
2023-02-12T22:16:22.918Z,99940.84
2023-02-12T22:18:49.758Z,99942.66
2023-02-12T22:21:16.731Z,99938.34
2023-02-12T22:23:43.713Z,99948.19
2023-02-12T22:26:10.082Z,99946.56
2023-02-12T22:28:36.465Z,99942.22
2023-02-12T22:31:02.771Z,99945.91
2023-02-12T22:33:29.171Z,99947.75
2023-02-12T22:35:55.728Z,99949.59
2023-02-12T22:38:22.011Z,99942.63
2023-02-12T22:40:48.342Z,99950.81
2023-02-12T22:43:14.658Z,99939.31
2023-02-12T22:45:43.103Z,99939.50
2023-02-12T22:48:09.356Z,99929.84
2023-02-12T22:50:37.095Z,99936.19
2023-02-12T22:53:03.552Z,99937.22
2023-02-12T22:55:30.914Z,99933.72
2023-02-12T22:57:57.309Z,99932.91
2023-02-12T23:00:23.580Z,99929.59
2023-02-12T23:02:49.948Z,99934.13
2023-02-12T23:05:16.930Z,99932.44
2023-02-12T23:07:43.706Z,99932.44
2023-02-12T23:10:10.105Z,99934.47
2023-02-12T23:12:36.360Z,99924.84
2023-02-12T23:15:02.711Z,99936.53
2023-02-12T23:23:09.906Z,99918.22
2023-02-12T23:25:36.469Z,99924.59
2023-02-12T23:28:05.546Z,99922.91
2023-02-12T23:30:31.957Z,99923.13
2023-02-12T23:32:58.307Z,99916.16
2023-02-12T23:35:24.572Z,99919.00
2023-02-12T23:37:50.884Z,99915.50
2023-02-12T23:40:17.201Z,99913.88
2023-02-12T23:42:43.545Z,99913.03
2023-02-12T23:45:09.923Z,99912.41
2023-02-12T23:47:36.282Z,99906.03
2023-02-12T23:50:02.705Z,99907.25
2023-02-12T23:52:30.120Z,99908.25
2023-02-12T23:54:56.485Z,99909.28
2023-02-12T23:57:24.183Z,99904.97
2023-02-12T23:59:51.343Z,99905.97
